»·PEaware :: N710DS KRNM-KPHX

N710DS :: KRNM-KPHX

FLIGHT INFORMATION

Flight Status: Arrived
Operator: Privately registered:
United States
More flights under this callsign
Pilot: John H. (10732)
Aircraft: Unknown
(B60T)
More flights by this aircraft type
Origin: KRNM Ramona
United States
Destination: KPHX Phoenix Sky Harbor Intl
United States
More flights between these airports :: More routes between these airports
Route: GWIRE MOHAK ARLIN4
File this flight plan on PilotEdge
Remarks:
Altitude:
(Current/Filed)
25,000ft
Speed:
(Current/Filed)
300kts
Departed: 24-Jun-19 08:33 AM
Arrived: 24-Jun-19 09:34 AM
Distance/Time
Traveled:
247nm/1:00
Distance/Time
To Go:
Arrived

Flight Plot

Page will automatically refresh every two minutes.

Flight plan parsing failed; only flown route is shown


Map Options




Map Legend


Flown Route
Filed Route
Departure Airport
Arrival Airport
Navaid (VOR, NDB)
Fix

Horizontal Profiles

Position Reports

Time Latitude Longitude Heading Altitude Ground
Speed
24-Jun-19 08:19 33.040492 -116.911131 313 1396ft 0kts
24-Jun-19 08:20 33.040492 -116.911131 313 1396ft 0kts
24-Jun-19 08:21 33.040492 -116.911131 313 1396ft 0kts
24-Jun-19 08:22 33.040492 -116.911131 313 1396ft 0kts
24-Jun-19 08:23 33.040492 -116.911131 313 1396ft 0kts
24-Jun-19 08:24 33.040492 -116.911131 313 1396ft 0kts
24-Jun-19 08:25 33.040492 -116.911131 313 1396ft 0kts
24-Jun-19 08:26 33.040492 -116.911131 313 1396ft 0kts
24-Jun-19 08:27 33.040492 -116.911131 313 1396ft 0kts
24-Jun-19 08:28 33.040492 -116.911131 313 1396ft 0kts
24-Jun-19 08:29 33.040493 -116.911132 313 1396ft 0kts
24-Jun-19 08:30 33.038943 -116.909256 102 1396ft 13kts
24-Jun-19 08:31 33.038466 -116.907269 180 1396ft 7kts
24-Jun-19 08:32 33.043249 -116.934952 294 3805ft 129kts
24-Jun-19 08:33 33.086652 -116.972229 320 5264ft 224kts
24-Jun-19 08:34 33.134938 -116.978252 53 8724ft 194kts
24-Jun-19 08:35 33.127434 -116.916727 113 12258ft 200kts
24-Jun-19 08:36 33.104284 -116.855658 112 15773ft 201kts
24-Jun-19 08:37 33.082324 -116.794884 112 19272ft 202kts
24-Jun-19 08:38 33.059358 -116.731038 111 22788ft 212kts
24-Jun-19 08:39 33.034269 -116.661299 110 25025ft 271kts
24-Jun-19 08:40 33.002037 -116.571941 111 25003ft 301kts
24-Jun-19 08:41 32.968742 -116.479892 112 24993ft 304kts
24-Jun-19 08:42 32.934379 -116.385299 112 24986ft 316kts
24-Jun-19 08:43 32.901742 -116.295306 113 24985ft 319kts
24-Jun-19 08:44 32.866523 -116.198571 112 24977ft 318kts
24-Jun-19 08:45 32.831117 -116.101737 114 24975ft 318kts
24-Jun-19 08:46 32.795876 -116.005725 114 24965ft 314kts
24-Jun-19 08:47 32.762701 -115.911168 105 24952ft 308kts
24-Jun-19 08:48 32.760499 -115.809873 90 24953ft 306kts
24-Jun-19 08:49 32.762240 -115.707998 90 24927ft 311kts
24-Jun-19 08:50 32.763784 -115.604590 90 24919ft 314kts
24-Jun-19 08:51 32.765206 -115.500640 89 24903ft 318kts
24-Jun-19 08:52 32.766589 -115.395050 89 24893ft 320kts
24-Jun-19 08:53 32.767868 -115.288998 88 24889ft 321kts
24-Jun-19 08:54 32.769073 -115.182620 88 24883ft 322kts
24-Jun-19 08:55 32.770103 -115.084225 88 24882ft 322kts
24-Jun-19 08:56 32.771123 -114.977856 88 24885ft 322kts
24-Jun-19 08:57 32.772059 -114.871312 88 24884ft 322kts
24-Jun-19 08:58 32.772898 -114.764832 88 24887ft 322kts
24-Jun-19 08:59 32.773655 -114.658015 88 24887ft 322kts
24-Jun-19 09:00 32.774314 -114.551714 88 24889ft 322kts
24-Jun-19 09:01 32.774889 -114.445077 88 24889ft 322kts
24-Jun-19 09:02 32.775369 -114.338523 88 24891ft 322kts
24-Jun-19 09:03 32.775759 -114.232159 88 24891ft 322kts
24-Jun-19 09:04 32.776057 -114.125400 87 24892ft 322kts
24-Jun-19 09:05 32.776267 -114.018702 87 24896ft 323kts
24-Jun-19 09:06 32.784625 -113.913136 77 24896ft 321kts
24-Jun-19 09:07 32.799667 -113.808225 77 24903ft 321kts
24-Jun-19 09:08 32.814884 -113.705225 72 23477ft 313kts
24-Jun-19 09:09 32.864221 -113.625815 46 21851ft 294kts
24-Jun-19 09:10 32.917620 -113.553128 47 20296ft 289kts
24-Jun-19 09:11 32.970610 -113.481668 47 18765ft 287kts
24-Jun-19 09:12 33.023503 -113.410319 46 17237ft 287kts
24-Jun-19 09:13 33.072133 -113.344594 46 15830ft 279kts
24-Jun-19 09:14 33.122084 -113.276926 46 14386ft 266kts
24-Jun-19 09:15 33.170404 -113.211384 46 12990ft 262kts
24-Jun-19 09:16 33.218701 -113.145758 47 11590ft 262kts
24-Jun-19 09:17 33.266566 -113.079920 54 10186ft 261kts
24-Jun-19 09:18 33.275419 -113.000334 87 10001ft 240kts
24-Jun-19 09:19 33.278218 -112.920806 89 10005ft 239kts
24-Jun-19 09:20 33.280251 -112.841625 90 10003ft 230kts
24-Jun-19 09:21 33.281816 -112.774119 90 10013ft 204kts
24-Jun-19 09:22 33.283451 -112.703549 90 10011ft 216kts
24-Jun-19 09:23 33.303023 -112.632662 61 9101ft 242kts
24-Jun-19 09:24 33.337468 -112.563061 60 7714ft 241kts
24-Jun-19 09:25 33.371508 -112.494692 60 6334ft 238kts
24-Jun-19 09:26 33.405229 -112.426551 60 6037ft 233kts
24-Jun-19 09:27 33.432563 -112.355744 87 5174ft 232kts
24-Jun-19 09:28 33.428757 -112.285361 91 5051ft 170kts
24-Jun-19 09:29 33.429051 -112.227002 91 4452ft 179kts
24-Jun-19 09:30 33.428928 -112.167410 91 3443ft 177kts
24-Jun-19 09:31 33.428905 -112.109595 91 2507ft 171kts
24-Jun-19 09:32 33.428909 -112.056216 91 1683ft 133kts
24-Jun-19 09:33 33.428873 -112.023545 92 1138ft 27kts
24-Jun-19 09:34 33.427804 -112.021806 180 1138ft 11kts
24-Jun-19 09:35 33.425582 -112.021280 179 1138ft 0kts

Navigation Log

Ident Type
Flight plan parsing failed, navigation log unavailable